Terminal Aerodrome Forecast
Issued by NWS

Home | Current Version | Previous Version | Text Only | Print | Product List | Glossary On
Versions: 1 2 3 4 5 6 7 8 9 10 11 12 13 14 15 16 17 18 19 20 21
000
FTUS45 KCYS 191751
TAFLAR
TAF
KLAR 191751Z 1918/2018 24027G37KT P6SM BKN120
     FM192100 27025G34KT P6SM VCSH BKN070 OVC100
     FM200400 29018G25KT P6SM SCT150=

USA.gov is the U.S. government's official web portal to all federal, state and local government web resources and services.